sensor_id;sensor_type;location;lat;lon;timestamp;pressure;altitude;pressure_sealevel;temperature;humidity
61757;BME280;57225;61.460;24.060;2022-07-29T00:00:36;100384.03;;;13.24;92.00
61757;BME280;57225;61.460;24.060;2022-07-29T00:03:20;100396.34;;;13.34;91.33
61757;BME280;57225;61.460;24.060;2022-07-29T00:06:04;100388.38;;;13.32;91.46
61757;BME280;57225;61.460;24.060;2022-07-29T00:08:49;100395.56;;;13.29;91.38
61757;BME280;57225;61.460;24.060;2022-07-29T00:11:33;100389.63;;;13.27;90.97
61757;BME280;57225;61.460;24.060;2022-07-29T00:14:17;100396.72;;;13.36;90.74
61757;BME280;57225;61.460;24.060;2022-07-29T00:17:01;100395.91;;;13.39;90.12
61757;BME280;57225;61.460;24.060;2022-07-29T00:19:45;100394.38;;;13.31;90.93
61757;BME280;57225;61.460;24.060;2022-07-29T00:22:30;100395.63;;;13.26;90.31
61757;BME280;57225;61.460;24.060;2022-07-29T00:25:14;100400.81;;;13.27;89.67
61757;BME280;57225;61.460;24.060;2022-07-29T00:27:59;100403.28;;;13.18;91.35
61757;BME280;57225;61.460;24.060;2022-07-29T00:30:43;100403.28;;;13.18;91.23
61757;BME280;57225;61.460;24.060;2022-07-29T00:33:28;100411.22;;;13.27;90.72
61757;BME280;57225;61.460;24.060;2022-07-29T00:36:13;100407.28;;;13.21;91.10
61757;BME280;57225;61.460;24.060;2022-07-29T00:38:57;100400.91;;;13.17;91.83
61757;BME280;57225;61.460;24.060;2022-07-29T00:41:41;100398.91;;;13.17;91.00
61757;BME280;57225;61.460;24.060;2022-07-29T00:44:26;100408.91;;;13.11;91.25
61757;BME280;57225;61.460;24.060;2022-07-29T00:47:11;100405.38;;;13.07;92.07
61757;BME280;57225;61.460;24.060;2022-07-29T00:49:56;100400.97;;;13.06;92.76
61757;BME280;57225;61.460;24.060;2022-07-29T00:52:41;100408.16;;;13.04;91.87
61757;BME280;57225;61.460;24.060;2022-07-29T00:55:26;100412.97;;;13.07;91.27
61757;BME280;57225;61.460;24.060;2022-07-29T00:58:12;100413.81;;;13.00;91.43
61757;BME280;57225;61.460;24.060;2022-07-29T01:00:57;100414.63;;;13.01;91.50
61757;BME280;57225;61.460;24.060;2022-07-29T01:03:42;100409.13;;;12.86;91.75
61757;BME280;57225;61.460;24.060;2022-07-29T01:06:26;100416.66;;;12.93;91.91
61757;BME280;57225;61.460;24.060;2022-07-29T01:09:11;100410.69;;;12.91;91.40
61757;BME280;57225;61.460;24.060;2022-07-29T01:11:57;100403.53;;;12.86;91.21
61757;BME280;57225;61.460;24.060;2022-07-29T01:14:42;100410.81;;;12.77;92.39
61757;BME280;57225;61.460;24.060;2022-07-29T01:17:27;100417.59;;;12.76;92.45
61757;BME280;57225;61.460;24.060;2022-07-29T01:20:19;100412.78;;;12.80;91.69
61757;BME280;57225;61.460;24.060;2022-07-29T01:29:30;100422.03;;;12.70;92.17
61757;BME280;57225;61.460;24.060;2022-07-29T01:32:20;100414.84;;;12.69;93.00
61757;BME280;57225;61.460;24.060;2022-07-29T01:38:10;100417.22;;;12.74;91.56
61757;BME280;57225;61.460;24.060;2022-07-29T01:41:05;100412.84;;;12.69;91.44
61757;BME280;57225;61.460;24.060;2022-07-29T01:44:35;100413.22;;;12.71;92.01
61757;BME280;57225;61.460;24.060;2022-07-29T01:47:25;100419.66;;;12.65;91.88
61757;BME280;57225;61.460;24.060;2022-07-29T01:50:12;100421.69;;;12.64;91.80
61757;BME280;57225;61.460;24.060;2022-07-29T01:53:01;100421.25;;;12.66;91.73
61757;BME280;57225;61.460;24.060;2022-07-29T01:55:47;100421.25;;;12.66;91.44
61757;BME280;57225;61.460;24.060;2022-07-29T01:58:32;100415.28;;;12.64;91.31
61757;BME280;57225;61.460;24.060;2022-07-29T02:01:21;100427.63;;;12.70;91.28
61757;BME280;57225;61.460;24.060;2022-07-29T02:04:10;100424.84;;;12.66;91.63
61757;BME280;57225;61.460;24.060;2022-07-29T02:06:58;100428.03;;;12.68;91.85
61757;BME280;57225;61.460;24.060;2022-07-29T02:09:45;100431.59;;;12.76;91.32
61757;BME280;57225;61.460;24.060;2022-07-29T02:12:31;100419.59;;;12.72;91.92
61757;BME280;57225;61.460;24.060;2022-07-29T02:15:17;100423.63;;;12.71;90.93
61757;BME280;57225;61.460;24.060;2022-07-29T02:18:06;100429.59;;;12.73;90.86
61757;BME280;57225;61.460;24.060;2022-07-29T02:20:53;100431.59;;;12.76;90.79
61757;BME280;57225;61.460;24.060;2022-07-29T02:23:38;100435.59;;;12.75;91.28
61757;BME280;57225;61.460;24.060;2022-07-29T02:26:24;100432.03;;;12.71;91.11
61757;BME280;57225;61.460;24.060;2022-07-29T02:29:10;100427.25;;;12.68;91.83
61757;BME280;57225;61.460;24.060;2022-07-29T02:31:57;100427.97;;;12.79;91.30
61757;BME280;57225;61.460;24.060;2022-07-29T02:34:43;100431.53;;;12.83;90.83
61757;BME280;57225;61.460;24.060;2022-07-29T02:37:29;100438.31;;;12.85;90.12
61757;BME280;57225;61.460;24.060;2022-07-29T02:40:15;100441.09;;;12.89;89.85
61757;BME280;57225;61.460;24.060;2022-07-29T02:43:01;100424.31;;;12.85;89.89
61757;BME280;57225;61.460;24.060;2022-07-29T02:45:47;100433.94;;;12.81;90.52
61757;BME280;57225;61.460;24.060;2022-07-29T02:48:37;100432.69;;;12.85;90.17
61757;BME280;57225;61.460;24.060;2022-07-29T02:51:30;100434.66;;;12.96;89.40
61757;BME280;57225;61.460;24.060;2022-07-29T02:54:26;100434.66;;;12.92;90.78
61757;BME280;57225;61.460;24.060;2022-07-29T02:57:21;100437.84;;;12.94;90.23
61757;BME280;57225;61.460;24.060;2022-07-29T03:00:08;100437.44;;;12.96;90.17
61757;BME280;57225;61.460;24.060;2022-07-29T03:02:55;100433.84;;;12.95;89.40
61757;BME280;57225;61.460;24.060;2022-07-29T03:05:40;100434.25;;;12.90;89.79
61757;BME280;57225;61.460;24.060;2022-07-29T03:08:26;100427.41;;;12.98;89.47
61757;BME280;57225;61.460;24.060;2022-07-29T03:11:12;100428.59;;;13.01;89.58
61757;BME280;57225;61.460;24.060;2022-07-29T03:13:57;100438.94;;;13.04;90.27
61757;BME280;57225;61.460;24.060;2022-07-29T03:16:41;100437.34;;;13.06;90.11
61757;BME280;57225;61.460;24.060;2022-07-29T03:19:26;100431.41;;;12.97;90.47
61757;BME280;57225;61.460;24.060;2022-07-29T03:22:11;100423.00;;;13.01;90.05
61757;BME280;57225;61.460;24.060;2022-07-29T03:24:56;100436.09;;;13.11;90.33
61757;BME280;57225;61.460;24.060;2022-07-29T03:27:41;100434.53;;;13.13;90.40
61757;BME280;57225;61.460;24.060;2022-07-29T03:30:25;100432.09;;;13.12;89.90
61757;BME280;57225;61.460;24.060;2022-07-29T03:33:10;100437.69;;;13.12;90.22
61757;BME280;57225;61.460;24.060;2022-07-29T03:35:54;100443.28;;;13.12;89.68
61757;BME280;57225;61.460;24.060;2022-07-29T03:38:39;100440.44;;;13.22;89.32
61757;BME280;57225;61.460;24.060;2022-07-29T03:41:25;100442.75;;;13.31;89.14
61757;BME280;57225;61.460;24.060;2022-07-29T03:44:11;100448.47;;;13.20;90.30
61757;BME280;57225;61.460;24.060;2022-07-29T03:46:57;100453.16;;;13.31;88.82
61757;BME280;57225;61.460;24.060;2022-07-29T03:49:48;100457.03;;;13.44;88.04
61757;BME280;57225;61.460;24.060;2022-07-29T03:52:34;100457.44;;;13.46;86.56
61757;BME280;57225;61.460;24.060;2022-07-29T03:55:19;100457.44;;;13.42;87.18
61757;BME280;57225;61.460;24.060;2022-07-29T03:58:04;100446.66;;;13.41;87.89
61757;BME280;57225;61.460;24.060;2022-07-29T04:00:49;100447.16;;;13.32;88.39
61757;BME280;57225;61.460;24.060;2022-07-29T04:03:34;100444.69;;;13.38;87.56
61757;BME280;57225;61.460;24.060;2022-07-29T04:06:18;100448.31;;;13.35;88.50
61757;BME280;57225;61.460;24.060;2022-07-29T04:09:03;100444.69;;;13.38;88.48
61757;BME280;57225;61.460;24.060;2022-07-29T04:11:47;100453.78;;;13.49;87.00
61757;BME280;57225;61.460;24.060;2022-07-29T04:14:33;100452.59;;;13.50;86.74
61757;BME280;57225;61.460;24.060;2022-07-29T04:17:17;100446.63;;;13.44;86.54
61757;BME280;57225;61.460;24.060;2022-07-29T04:20:02;100454.25;;;13.44;87.63
61757;BME280;57225;61.460;24.060;2022-07-29T04:22:47;100459.00;;;13.47;87.07
61757;BME280;57225;61.460;24.060;2022-07-29T04:25:31;100458.94;;;13.54;86.04
61757;BME280;57225;61.460;24.060;2022-07-29T04:28:15;100473.72;;;13.54;85.38
61757;BME280;57225;61.460;24.060;2022-07-29T04:30:59;100468.88;;;13.62;85.88
61757;BME280;57225;61.460;24.060;2022-07-29T04:33:43;100470.88;;;13.61;84.93
61757;BME280;57225;61.460;24.060;2022-07-29T04:36:28;100463.59;;;13.67;84.94
61757;BME280;57225;61.460;24.060;2022-07-29T04:39:12;100472.34;;;13.73;84.84
61757;BME280;57225;61.460;24.060;2022-07-29T04:41:57;100470.00;;;13.68;83.76
61757;BME280;57225;61.460;24.060;2022-07-29T04:44:41;100471.19;;;13.71;83.96
61757;BME280;57225;61.460;24.060;2022-07-29T04:47:26;100468.72;;;13.76;84.65
61757;BME280;57225;61.460;24.060;2022-07-29T04:50:10;100470.66;;;13.83;83.96
61757;BME280;57225;61.460;24.060;2022-07-29T04:52:54;100465.50;;;13.78;84.11
61757;BME280;57225;61.460;24.060;2022-07-29T04:55:39;100473.88;;;13.81;83.27
61757;BME280;57225;61.460;24.060;2022-07-29T04:58:23;100471.38;;;13.90;83.82
61757;BME280;57225;61.460;24.060;2022-07-29T05:01:08;100469.38;;;13.91;84.11
61757;BME280;57225;61.460;24.060;2022-07-29T05:03:52;100472.13;;;13.94;83.55
61757;BME280;57225;61.460;24.060;2022-07-29T05:06:37;100484.84;;;14.02;83.07
61757;BME280;57225;61.460;24.060;2022-07-29T05:09:21;100484.84;;;14.02;82.50
61757;BME280;57225;61.460;24.060;2022-07-29T05:12:06;100477.59;;;14.05;84.03
61757;BME280;57225;61.460;24.060;2022-07-29T05:14:51;100488.72;;;14.16;83.17
61757;BME280;57225;61.460;24.060;2022-07-29T05:17:35;100484.66;;;14.17;82.25
61757;BME280;57225;61.460;24.060;2022-07-29T05:20:19;100485.53;;;14.14;82.24
61757;BME280;57225;61.460;24.060;2022-07-29T05:23:09;100482.78;;;14.06;83.25
61757;BME280;57225;61.460;24.060;2022-07-29T05:25:56;100489.38;;;14.27;81.50
61757;BME280;57225;61.460;24.060;2022-07-29T05:28:41;100489.63;;;14.36;81.29
61757;BME280;57225;61.460;24.060;2022-07-29T05:31:25;100494.25;;;14.19;81.44
61757;BME280;57225;61.460;24.060;2022-07-29T05:34:09;100485.78;;;14.23;82.17
61757;BME280;57225;61.460;24.060;2022-07-29T05:36:54;100490.88;;;14.35;81.65
61757;BME280;57225;61.460;24.060;2022-07-29T05:39:39;100498.75;;;14.47;80.34
61757;BME280;57225;61.460;24.060;2022-07-29T05:42:24;100500.31;;;14.52;80.25
61757;BME280;57225;61.460;24.060;2022-07-29T05:45:09;100487.81;;;14.56;80.69
61757;BME280;57225;61.460;24.060;2022-07-29T05:47:54;100487.13;;;14.75;79.22
61757;BME280;57225;61.460;24.060;2022-07-29T05:50:38;100495.47;;;14.82;79.03
61757;BME280;57225;61.460;24.060;2022-07-29T05:53:23;100496.16;;;14.90;77.76
61757;BME280;57225;61.460;24.060;2022-07-29T05:56:07;100474.28;;;14.78;77.16
61757;BME280;57225;61.460;24.060;2022-07-29T05:58:52;100497.44;;;14.85;77.82
61757;BME280;57225;61.460;24.060;2022-07-29T06:01:36;100503.63;;;15.00;79.19
61757;BME280;57225;61.460;24.060;2022-07-29T06:04:23;100506.63;;;15.13;75.99
61757;BME280;57225;61.460;24.060;2022-07-29T06:07:07;100510.66;;;15.12;78.22
61757;BME280;57225;61.460;24.060;2022-07-29T06:09:52;100520.97;;;15.18;78.18
61757;BME280;57225;61.460;24.060;2022-07-29T06:12:36;100516.91;;;15.23;75.06
61757;BME280;57225;61.460;24.060;2022-07-29T06:15:21;100513.84;;;15.14;75.78
61757;BME280;57225;61.460;24.060;2022-07-29T06:18:05;100512.72;;;15.08;74.34
61757;BME280;57225;61.460;24.060;2022-07-29T06:20:53;100508.72;;;15.09;76.10
61757;BME280;57225;61.460;24.060;2022-07-29T06:23:39;100517.50;;;15.11;77.48
61757;BME280;57225;61.460;24.060;2022-07-29T06:26:23;100499.41;;;15.12;75.04
61757;BME280;57225;61.460;24.060;2022-07-29T06:29:08;100518.75;;;15.33;74.26
61757;BME280;57225;61.460;24.060;2022-07-29T06:31:52;100520.66;;;15.40;76.06
61757;BME280;57225;61.460;24.060;2022-07-29T06:34:37;100512.16;;;15.43;73.29
61757;BME280;57225;61.460;24.060;2022-07-29T06:37:21;100522.13;;;15.48;73.87
61757;BME280;57225;61.460;24.060;2022-07-29T06:40:07;100529.31;;;15.52;73.39
61757;BME280;57225;61.460;24.060;2022-07-29T06:43:09;100518.66;;;15.63;73.35
61757;BME280;57225;61.460;24.060;2022-07-29T06:45:54;100525.03;;;15.67;73.68
61757;BME280;57225;61.460;24.060;2022-07-29T06:48:40;100524.16;;;15.71;73.07
61757;BME280;57225;61.460;24.060;2022-07-29T06:51:26;100526.31;;;16.06;69.87
61757;BME280;57225;61.460;24.060;2022-07-29T06:54:11;100523.31;;;16.17;70.20
61757;BME280;57225;61.460;24.060;2022-07-29T06:56:55;100523.81;;;16.31;69.02
61757;BME280;57225;61.460;24.060;2022-07-29T06:59:39;100524.91;;;16.18;68.93
61757;BME280;57225;61.460;24.060;2022-07-29T07:02:24;100529.44;;;16.31;69.77
61757;BME280;57225;61.460;24.060;2022-07-29T07:05:08;100537.16;;;16.27;67.95
61757;BME280;57225;61.460;24.060;2022-07-29T07:07:52;100530.75;;;16.27;69.10
61757;BME280;57225;61.460;24.060;2022-07-29T07:10:37;100537.09;;;16.31;67.81
61757;BME280;57225;61.460;24.060;2022-07-29T07:13:22;100538.25;;;16.33;69.15
61757;BME280;57225;61.460;24.060;2022-07-29T07:16:07;100538.63;;;16.35;67.34
61757;BME280;57225;61.460;24.060;2022-07-29T07:18:51;100535.53;;;16.30;68.21
61757;BME280;57225;61.460;24.060;2022-07-29T07:21:36;100546.91;;;16.42;68.57
61757;BME280;57225;61.460;24.060;2022-07-29T07:24:20;100544.94;;;16.63;67.73
61757;BME280;57225;61.460;24.060;2022-07-29T07:27:04;100543.53;;;16.71;68.72
61757;BME280;57225;61.460;24.060;2022-07-29T07:29:49;100542.16;;;16.79;67.09
61757;BME280;57225;61.460;24.060;2022-07-29T07:32:34;100546.75;;;16.89;66.06
61757;BME280;57225;61.460;24.060;2022-07-29T07:35:18;100551.97;;;16.71;67.36
61757;BME280;57225;61.460;24.060;2022-07-29T07:38:03;100549.22;;;16.87;66.33
61757;BME280;57225;61.460;24.060;2022-07-29T07:40:49;100556.97;;;17.19;67.08
61757;BME280;57225;61.460;24.060;2022-07-29T07:43:33;100543.41;;;17.46;65.56
61757;BME280;57225;61.460;24.060;2022-07-29T07:46:17;100548.28;;;17.62;63.72
61757;BME280;57225;61.460;24.060;2022-07-29T07:49:02;100541.56;;;17.56;64.99
61757;BME280;57225;61.460;24.060;2022-07-29T07:51:47;100549.25;;;17.72;64.53
61757;BME280;57225;61.460;24.060;2022-07-29T07:54:31;100535.22;;;18.00;65.46
61757;BME280;57225;61.460;24.060;2022-07-29T07:57:16;100548.19;;;18.27;62.17
61757;BME280;57225;61.460;24.060;2022-07-29T08:00:00;100552.81;;;18.04;61.37
61757;BME280;57225;61.460;24.060;2022-07-29T08:02:44;100543.31;;;17.98;61.43
61757;BME280;57225;61.460;24.060;2022-07-29T08:05:29;100538.78;;;18.17;60.81
61757;BME280;57225;61.460;24.060;2022-07-29T08:08:16;100540.91;;;18.42;61.19
61757;BME280;57225;61.460;24.060;2022-07-29T08:11:01;100549.63;;;18.76;59.68
61757;BME280;57225;61.460;24.060;2022-07-29T08:13:47;100541.38;;;18.95;59.30
61757;BME280;57225;61.460;24.060;2022-07-29T08:16:32;100544.56;;;19.09;58.00
61757;BME280;57225;61.460;24.060;2022-07-29T08:19:16;100552.50;;;19.27;59.66
61757;BME280;57225;61.460;24.060;2022-07-29T08:22:00;100555.41;;;19.11;58.25
61757;BME280;57225;61.460;24.060;2022-07-29T08:24:45;100551.06;;;18.39;58.22
61757;BME280;57225;61.460;24.060;2022-07-29T08:27:47;100549.97;;;18.21;59.75
61757;BME280;57225;61.460;24.060;2022-07-29T08:30:32;100556.50;;;18.18;61.53
61757;BME280;57225;61.460;24.060;2022-07-29T08:33:16;100550.22;;;17.65;61.84
61757;BME280;57225;61.460;24.060;2022-07-29T08:36:01;100561.97;;;17.27;63.20
61757;BME280;57225;61.460;24.060;2022-07-29T08:38:45;100558.50;;;17.04;66.20
61757;BME280;57225;61.460;24.060;2022-07-29T08:41:30;100559.19;;;17.08;63.72
61757;BME280;57225;61.460;24.060;2022-07-29T08:44:19;100568.22;;;17.19;66.58
61757;BME280;57225;61.460;24.060;2022-07-29T08:47:05;100562.44;;;17.26;64.30
61757;BME280;57225;61.460;24.060;2022-07-29T08:49:49;100564.25;;;17.33;62.62
61757;BME280;57225;61.460;24.060;2022-07-29T08:52:37;100569.72;;;17.40;63.61
61757;BME280;57225;61.460;24.060;2022-07-29T08:55:21;100570.84;;;17.62;61.77
61757;BME280;57225;61.460;24.060;2022-07-29T08:58:06;100567.13;;;17.81;63.10
61757;BME280;57225;61.460;24.060;2022-07-29T09:00:55;100568.34;;;17.96;64.36
61757;BME280;57225;61.460;24.060;2022-07-29T09:03:40;100569.13;;;17.97;59.41
61757;BME280;57225;61.460;24.060;2022-07-29T09:06:29;100557.63;;;17.75;62.82
61757;BME280;57225;61.460;24.060;2022-07-29T09:09:17;100561.53;;;18.10;64.96
61757;BME280;57225;61.460;24.060;2022-07-29T09:12:01;100562.56;;;18.32;63.38
61757;BME280;57225;61.460;24.060;2022-07-29T09:14:48;100564.72;;;18.70;62.82
61757;BME280;57225;61.460;24.060;2022-07-29T09:17:43;100552.25;;;19.34;61.19
61757;BME280;57225;61.460;24.060;2022-07-29T09:20:28;100557.19;;;19.81;57.93
61757;BME280;57225;61.460;24.060;2022-07-29T09:23:31;100554.38;;;20.50;57.71
61757;BME280;57225;61.460;24.060;2022-07-29T09:26:15;100549.16;;;20.92;54.63
61757;BME280;57225;61.460;24.060;2022-07-29T09:29:00;100553.25;;;20.69;54.58
61757;BME280;57225;61.460;24.060;2022-07-29T09:31:53;100556.53;;;19.77;57.63
61757;BME280;57225;61.460;24.060;2022-07-29T09:34:37;100542.63;;;18.94;60.13
61757;BME280;57225;61.460;24.060;2022-07-29T09:37:26;100558.41;;;18.78;60.89
61757;BME280;57225;61.460;24.060;2022-07-29T09:40:30;100564.88;;;18.92;60.93
61757;BME280;57225;61.460;24.060;2022-07-29T09:43:15;100566.84;;;18.66;59.89
61757;BME280;57225;61.460;24.060;2022-07-29T09:46:25;100563.78;;;18.60;60.80
61757;BME280;57225;61.460;24.060;2022-07-29T09:49:12;100566.78;;;18.53;59.47
61757;BME280;57225;61.460;24.060;2022-07-29T09:52:14;100564.19;;;18.46;59.23
61757;BME280;57225;61.460;24.060;2022-07-29T09:55:06;100556.72;;;18.39;58.19
61757;BME280;57225;61.460;24.060;2022-07-29T09:57:51;100558.88;;;18.48;59.37
61757;BME280;57225;61.460;24.060;2022-07-29T10:00:42;100549.84;;;18.53;59.32
61757;BME280;57225;61.460;24.060;2022-07-29T10:03:26;100552.75;;;18.37;57.72
61757;BME280;57225;61.460;24.060;2022-07-29T10:06:11;100552.34;;;18.51;57.51
61757;BME280;57225;61.460;24.060;2022-07-29T10:09:10;100556.59;;;18.43;57.80
61757;BME280;57225;61.460;24.060;2022-07-29T10:12:11;100555.69;;;18.75;58.30
61757;BME280;57225;61.460;24.060;2022-07-29T10:14:57;100552.00;;;18.91;56.08
61757;BME280;57225;61.460;24.060;2022-07-29T10:17:42;100550.06;;;18.75;56.34
61757;BME280;57225;61.460;24.060;2022-07-29T10:20:27;100563.84;;;18.44;56.40
61757;BME280;57225;61.460;24.060;2022-07-29T10:23:12;100558.66;;;17.97;59.70
61757;BME280;57225;61.460;24.060;2022-07-29T10:25:57;100562.16;;;17.53;61.52
61757;BME280;57225;61.460;24.060;2022-07-29T10:28:41;100570.34;;;17.47;61.40
61757;BME280;57225;61.460;24.060;2022-07-29T10:31:30;100564.91;;;17.56;61.83
61757;BME280;57225;61.460;24.060;2022-07-29T10:44:04;100561.13;;;18.53;59.65
61757;BME280;57225;61.460;24.060;2022-07-29T10:46:51;100559.81;;;18.99;56.37
61757;BME280;57225;61.460;24.060;2022-07-29T10:49:35;100566.13;;;18.91;55.45
61757;BME280;57225;61.460;24.060;2022-07-29T10:52:20;100551.44;;;18.83;55.46
61757;BME280;57225;61.460;24.060;2022-07-29T10:55:07;100567.00;;;18.75;55.71
61757;BME280;57225;61.460;24.060;2022-07-29T10:58:30;100562.19;;;18.59;55.74
61757;BME280;57225;61.460;24.060;2022-07-29T11:01:30;100566.00;;;18.24;54.24
61757;BME280;57225;61.460;24.060;2022-07-29T11:04:16;100554.72;;;18.24;54.11
61757;BME280;57225;61.460;24.060;2022-07-29T11:12:57;100557.91;;;18.26;52.98
61757;BME280;57225;61.460;24.060;2022-07-29T11:15:53;100554.88;;;18.33;54.24
61757;BME280;57225;61.460;24.060;2022-07-29T11:21:57;100559.16;;;19.08;54.37
61757;BME280;57225;61.460;24.060;2022-07-29T11:24:41;100549.53;;;19.43;51.80
61757;BME280;57225;61.460;24.060;2022-07-29T11:27:30;100559.06;;;19.49;53.33
61757;BME280;57225;61.460;24.060;2022-07-29T11:30:49;100554.16;;;19.24;51.88
61757;BME280;57225;61.460;24.060;2022-07-29T11:33:34;100559.47;;;19.35;53.31
61757;BME280;57225;61.460;24.060;2022-07-29T11:36:18;100569.47;;;19.52;52.91
61757;BME280;57225;61.460;24.060;2022-07-29T11:39:42;100562.94;;;20.24;51.63
61757;BME280;57225;61.460;24.060;2022-07-29T11:45:13;100571.66;;;19.95;53.07
61757;BME280;57225;61.460;24.060;2022-07-29T11:47:59;100563.13;;;19.48;54.26
61757;BME280;57225;61.460;24.060;2022-07-29T11:50:44;100570.25;;;18.73;55.85
61757;BME280;57225;61.460;24.060;2022-07-29T11:53:29;100570.06;;;18.23;57.52
61757;BME280;57225;61.460;24.060;2022-07-29T11:56:14;100570.22;;;17.87;59.81
61757;BME280;57225;61.460;24.060;2022-07-29T11:59:04;100565.84;;;17.70;59.86
61757;BME280;57225;61.460;24.060;2022-07-29T12:01:55;100560.94;;;17.38;61.95
61757;BME280;57225;61.460;24.060;2022-07-29T12:07:38;100562.00;;;17.60;60.57
61757;BME280;57225;61.460;24.060;2022-07-29T12:10:30;100553.81;;;17.49;60.23
61757;BME280;57225;61.460;24.060;2022-07-29T12:13:15;100555.47;;;17.47;60.90
61757;BME280;57225;61.460;24.060;2022-07-29T12:16:00;100554.41;;;17.41;60.02
61757;BME280;57225;61.460;24.060;2022-07-29T12:18:58;100555.72;;;17.52;60.40
61757;BME280;57225;61.460;24.060;2022-07-29T12:21:51;100547.91;;;17.60;61.42
61757;BME280;57225;61.460;24.060;2022-07-29T12:24:43;100542.63;;;17.78;59.97
61757;BME280;57225;61.460;24.060;2022-07-29T12:27:28;100554.59;;;17.98;61.44
61757;BME280;57225;61.460;24.060;2022-07-29T12:30:15;100548.22;;;18.11;59.98
61757;BME280;57225;61.460;24.060;2022-07-29T12:32:59;100549.97;;;18.21;57.94
61757;BME280;57225;61.460;24.060;2022-07-29T12:35:54;100543.47;;;18.07;56.49
61757;BME280;57225;61.460;24.060;2022-07-29T12:38:46;100553.91;;;17.94;57.15
61757;BME280;57225;61.460;24.060;2022-07-29T12:41:36;100558.78;;;18.23;58.38
61757;BME280;57225;61.460;24.060;2022-07-29T12:44:21;100548.66;;;18.67;57.35
61757;BME280;57225;61.460;24.060;2022-07-29T12:47:05;100554.31;;;19.21;56.32
61757;BME280;57225;61.460;24.060;2022-07-29T12:49:50;100555.91;;;19.47;55.00
61757;BME280;57225;61.460;24.060;2022-07-29T12:52:35;100555.19;;;19.18;56.08
61757;BME280;57225;61.460;24.060;2022-07-29T12:55:42;100566.59;;;18.89;57.35
61757;BME280;57225;61.460;24.060;2022-07-29T12:58:34;100563.53;;;18.83;56.57
61757;BME280;57225;61.460;24.060;2022-07-29T13:01:19;100572.66;;;18.75;56.64
61757;BME280;57225;61.460;24.060;2022-07-29T13:04:04;100560.59;;;19.00;56.74
61757;BME280;57225;61.460;24.060;2022-07-29T13:06:58;100563.56;;;19.21;56.20
61757;BME280;57225;61.460;24.060;2022-07-29T13:09:44;100561.75;;;19.15;55.63
61757;BME280;57225;61.460;24.060;2022-07-29T13:12:29;100560.28;;;19.36;55.42
61757;BME280;57225;61.460;24.060;2022-07-29T13:15:16;100563.28;;;19.92;53.63
61757;BME280;57225;61.460;24.060;2022-07-29T13:18:01;100556.09;;;19.78;53.25
61757;BME280;57225;61.460;24.060;2022-07-29T13:20:46;100552.00;;;19.66;53.69
61757;BME280;57225;61.460;24.060;2022-07-29T13:23:31;100548.47;;;19.88;53.84
61757;BME280;57225;61.460;24.060;2022-07-29T13:26:15;100551.50;;;20.40;54.11
61757;BME280;57225;61.460;24.060;2022-07-29T13:29:03;100550.03;;;21.10;52.47
61757;BME280;57225;61.460;24.060;2022-07-29T13:31:47;100556.44;;;21.33;52.09
61757;BME280;57225;61.460;24.060;2022-07-29T13:34:32;100545.00;;;20.83;50.79
61757;BME280;57225;61.460;24.060;2022-07-29T13:37:16;100557.09;;;20.19;52.46
61757;BME280;57225;61.460;24.060;2022-07-29T13:40:01;100555.97;;;19.69;53.02
61757;BME280;57225;61.460;24.060;2022-07-29T13:42:47;100560.06;;;19.68;55.89
61757;BME280;57225;61.460;24.060;2022-07-29T13:45:31;100551.34;;;19.12;54.14
61757;BME280;57225;61.460;24.060;2022-07-29T13:48:15;100563.25;;;18.78;55.44
61757;BME280;57225;61.460;24.060;2022-07-29T13:50:59;100552.63;;;18.12;56.69
61757;BME280;57225;61.460;24.060;2022-07-29T13:53:44;100547.72;;;17.99;58.80
61757;BME280;57225;61.460;24.060;2022-07-29T13:56:28;100545.44;;;17.78;57.40
61757;BME280;57225;61.460;24.060;2022-07-29T13:59:16;100557.81;;;17.68;58.13
61757;BME280;57225;61.460;24.060;2022-07-29T14:02:00;100553.94;;;17.62;57.96
61757;BME280;57225;61.460;24.060;2022-07-29T14:04:44;100549.13;;;17.59;59.63
61757;BME280;57225;61.460;24.060;2022-07-29T14:07:29;100547.38;;;17.49;59.82
61757;BME280;57225;61.460;24.060;2022-07-29T14:10:14;100546.78;;;17.57;60.17
61757;BME280;57225;61.460;24.060;2022-07-29T14:12:58;100541.91;;;17.90;60.12
61757;BME280;57225;61.460;24.060;2022-07-29T14:15:43;100527.47;;;17.72;59.03
61757;BME280;57225;61.460;24.060;2022-07-29T14:18:27;100530.41;;;18.14;58.29
61757;BME280;57225;61.460;24.060;2022-07-29T14:21:12;100525.75;;;18.36;57.35
61757;BME280;57225;61.460;24.060;2022-07-29T14:23:56;100529.25;;;18.40;57.56
61757;BME280;57225;61.460;24.060;2022-07-29T14:26:40;100533.53;;;18.32;57.82
61757;BME280;57225;61.460;24.060;2022-07-29T14:29:25;100524.06;;;18.09;58.81
61757;BME280;57225;61.460;24.060;2022-07-29T14:32:09;100528.47;;;18.11;58.36
61757;BME280;57225;61.460;24.060;2022-07-29T14:34:54;100526.50;;;18.24;57.07
61757;BME280;57225;61.460;24.060;2022-07-29T14:37:38;100521.47;;;18.15;57.28
61757;BME280;57225;61.460;24.060;2022-07-29T14:40:23;100517.06;;;17.85;55.98
61757;BME280;57225;61.460;24.060;2022-07-29T14:43:07;100517.69;;;17.93;56.48
61757;BME280;57225;61.460;24.060;2022-07-29T14:45:52;100514.22;;;18.01;57.26
61757;BME280;57225;61.460;24.060;2022-07-29T14:48:36;100522.84;;;18.11;57.19
61757;BME280;57225;61.460;24.060;2022-07-29T14:51:20;100528.22;;;18.34;57.05
61757;BME280;57225;61.460;24.060;2022-07-29T14:54:04;100524.13;;;18.51;56.07